sensor_id;sensor_type;location;lat;lon;timestamp;pressure;altitude;pressure_sealevel;temperature;humidity
51083;BME280;37131;42.694;23.350;2023-05-03T00:09:49;95812.69;;;11.99;42.50
51083;BME280;37131;42.694;23.350;2023-05-03T00:12:14;95801.91;;;11.88;43.66
51083;BME280;37131;42.694;23.350;2023-05-03T00:14:39;95805.84;;;11.79;43.71
51083;BME280;37131;42.694;23.350;2023-05-03T00:17:04;95802.13;;;11.87;43.61
51083;BME280;37131;42.694;23.350;2023-05-03T00:19:30;95802.13;;;11.87;43.01
51083;BME280;37131;42.694;23.350;2023-05-03T00:21:57;95809.16;;;11.93;44.29
51083;BME280;37131;42.694;23.350;2023-05-03T00:24:23;95804.81;;;11.80;43.40
51083;BME280;37131;42.694;23.350;2023-05-03T00:26:48;95814.41;;;11.68;43.64
51083;BME280;37131;42.694;23.350;2023-05-03T00:29:13;95819.19;;;11.71;44.71
51083;BME280;37131;42.694;23.350;2023-05-03T00:31:38;95815.63;;;11.65;43.43
51083;BME280;37131;42.694;23.350;2023-05-03T00:34:04;95816.28;;;11.61;43.31
51083;BME280;37131;42.694;23.350;2023-05-03T00:36:29;95817.44;;;11.65;43.25
51083;BME280;37131;42.694;23.350;2023-05-03T00:38:55;95813.03;;;11.65;43.26
51083;BME280;37131;42.694;23.350;2023-05-03T00:41:20;95803.44;;;11.59;43.08
51083;BME280;37131;42.694;23.350;2023-05-03T00:43:48;95800.53;;;11.67;43.00
51083;BME280;37131;42.694;23.350;2023-05-03T00:46:13;95806.97;;;11.65;43.27
51083;BME280;37131;42.694;23.350;2023-05-03T00:48:38;95814.09;;;11.57;43.29
51083;BME280;37131;42.694;23.350;2023-05-03T00:51:04;95807.13;;;11.51;43.77
51083;BME280;37131;42.694;23.350;2023-05-03T00:53:29;95807.84;;;11.40;43.66
51083;BME280;37131;42.694;23.350;2023-05-03T00:55:55;95808.41;;;11.42;44.55
51083;BME280;37131;42.694;23.350;2023-05-03T00:58:23;95807.63;;;11.41;44.24
51083;BME280;37131;42.694;23.350;2023-05-03T01:00:48;95810.25;;;11.41;44.45
51083;BME280;37131;42.694;23.350;2023-05-03T01:03:14;95814.97;;;11.26;44.08
51083;BME280;37131;42.694;23.350;2023-05-03T01:08:28;95811.50;;;11.32;44.21
51083;BME280;37131;42.694;23.350;2023-05-03T01:11:06;95814.13;;;11.32;44.87
51083;BME280;37131;42.694;23.350;2023-05-03T01:14:15;95799.19;;;11.39;44.23
51083;BME280;37131;42.694;23.350;2023-05-03T01:16:30;95804.59;;;11.45;44.28
51083;BME280;37131;42.694;23.350;2023-05-03T01:18:59;95809.50;;;11.34;44.26
51083;BME280;37131;42.694;23.350;2023-05-03T01:21:26;95804.75;;;11.24;45.57
51083;BME280;37131;42.694;23.350;2023-05-03T01:26:27;95791.44;;;11.08;45.17
51083;BME280;37131;42.694;23.350;2023-05-03T01:28:53;95798.94;;;11.22;45.09
51083;BME280;37131;42.694;23.350;2023-05-03T01:31:24;95803.31;;;11.29;45.30
51083;BME280;37131;42.694;23.350;2023-05-03T01:36:34;95794.63;;;11.10;44.98
51083;BME280;37131;42.694;23.350;2023-05-03T01:39:02;95788.84;;;11.08;45.24
51083;BME280;37131;42.694;23.350;2023-05-03T01:41:29;95792.78;;;11.17;45.66
51083;BME280;37131;42.694;23.350;2023-05-03T01:43:55;95776.97;;;11.12;45.55
51083;BME280;37131;42.694;23.350;2023-05-03T01:46:21;95768.50;;;11.16;45.66
51083;BME280;37131;42.694;23.350;2023-05-03T01:48:46;95767.44;;;10.99;46.52
51083;BME280;37131;42.694;23.350;2023-05-03T01:51:11;95764.41;;;11.02;45.65
51083;BME280;37131;42.694;23.350;2023-05-03T01:53:37;95762.97;;;11.06;45.59
51083;BME280;37131;42.694;23.350;2023-05-03T01:56:02;95767.78;;;11.02;45.40
51083;BME280;37131;42.694;23.350;2023-05-03T01:58:27;95754.59;;;10.97;46.23
51083;BME280;37131;42.694;23.350;2023-05-03T02:00:52;95745.13;;;11.03;46.35
51083;BME280;37131;42.694;23.350;2023-05-03T02:03:18;95740.03;;;10.90;46.18
51083;BME280;37131;42.694;23.350;2023-05-03T02:05:44;95730.50;;;10.77;46.38
51083;BME280;37131;42.694;23.350;2023-05-03T02:08:09;95724.44;;;10.76;46.98
51083;BME280;37131;42.694;23.350;2023-05-03T02:10:35;95725.59;;;10.62;47.18
51083;BME280;37131;42.694;23.350;2023-05-03T02:13:00;95737.59;;;10.63;46.87
51083;BME280;37131;42.694;23.350;2023-05-03T02:15:25;95727.97;;;10.63;46.98
51083;BME280;37131;42.694;23.350;2023-05-03T02:17:50;95728.00;;;10.57;46.99
51083;BME280;37131;42.694;23.350;2023-05-03T02:20:15;95739.41;;;10.62;47.41
51083;BME280;37131;42.694;23.350;2023-05-03T02:22:41;95743.25;;;10.60;47.68
51083;BME280;37131;42.694;23.350;2023-05-03T02:25:06;95734.94;;;10.69;47.51
51083;BME280;37131;42.694;23.350;2023-05-03T02:27:32;95736.50;;;10.77;47.11
51083;BME280;37131;42.694;23.350;2023-05-03T02:29:57;95737.72;;;10.75;47.30
51083;BME280;37131;42.694;23.350;2023-05-03T02:32:22;95743.88;;;10.80;46.54
51083;BME280;37131;42.694;23.350;2023-05-03T02:34:48;95738.31;;;10.77;47.04
51083;BME280;37131;42.694;23.350;2023-05-03T02:37:14;95733.94;;;10.70;46.96
51083;BME280;37131;42.694;23.350;2023-05-03T02:39:39;95743.34;;;10.71;47.60
51083;BME280;37131;42.694;23.350;2023-05-03T02:42:04;95751.03;;;10.66;48.09
51083;BME280;37131;42.694;23.350;2023-05-03T02:44:30;95752.13;;;10.52;49.02
51083;BME280;37131;42.694;23.350;2023-05-03T02:46:55;95756.50;;;10.58;47.27
51083;BME280;37131;42.694;23.350;2023-05-03T02:49:20;95754.72;;;10.52;48.44
51083;BME280;37131;42.694;23.350;2023-05-03T02:51:46;95749.69;;;10.57;47.99
51083;BME280;37131;42.694;23.350;2023-05-03T02:54:11;95744.59;;;10.69;47.72
51083;BME280;37131;42.694;23.350;2023-05-03T02:56:37;95749.84;;;10.62;47.16
51083;BME280;37131;42.694;23.350;2023-05-03T02:59:02;95738.84;;;10.60;48.08
51083;BME280;37131;42.694;23.350;2023-05-03T03:01:27;95739.63;;;10.61;48.02
51083;BME280;37131;42.694;23.350;2023-05-03T03:03:53;95739.25;;;10.57;48.03
51083;BME280;37131;42.694;23.350;2023-05-03T03:06:19;95752.09;;;10.59;48.70
51083;BME280;37131;42.694;23.350;2023-05-03T03:08:44;95760.13;;;10.57;48.01
51083;BME280;37131;42.694;23.350;2023-05-03T03:11:09;95760.53;;;10.54;49.04
51083;BME280;37131;42.694;23.350;2023-05-03T03:13:35;95759.31;;;10.57;47.92
51083;BME280;37131;42.694;23.350;2023-05-03T03:16:04;95762.47;;;10.65;48.40
51083;BME280;37131;42.694;23.350;2023-05-03T03:18:29;95761.13;;;10.56;48.88
51083;BME280;37131;42.694;23.350;2023-05-03T03:20:55;95761.97;;;10.50;48.96
51083;BME280;37131;42.694;23.350;2023-05-03T03:23:21;95761.91;;;10.57;48.62
51083;BME280;37131;42.694;23.350;2023-05-03T03:25:46;95754.28;;;10.62;48.35
51083;BME280;37131;42.694;23.350;2023-05-03T03:28:11;95762.94;;;10.56;48.96
51083;BME280;37131;42.694;23.350;2023-05-03T03:30:36;95764.59;;;10.50;49.28
51083;BME280;37131;42.694;23.350;2023-05-03T03:33:02;95771.78;;;10.48;49.02
51083;BME280;37131;42.694;23.350;2023-05-03T03:35:27;95773.16;;;10.57;49.45
51083;BME280;37131;42.694;23.350;2023-05-03T03:37:53;95773.88;;;10.64;48.89
51083;BME280;37131;42.694;23.350;2023-05-03T03:40:18;95783.09;;;10.67;49.97
51083;BME280;37131;42.694;23.350;2023-05-03T03:42:43;95788.88;;;10.44;49.80
51083;BME280;37131;42.694;23.350;2023-05-03T03:45:09;95784.88;;;10.41;49.88
51083;BME280;37131;42.694;23.350;2023-05-03T03:47:34;95795.22;;;10.55;50.47
51083;BME280;37131;42.694;23.350;2023-05-03T03:50:00;95787.84;;;10.51;50.64
51083;BME280;37131;42.694;23.350;2023-05-03T03:52:26;95791.88;;;10.41;50.05
51083;BME280;37131;42.694;23.350;2023-05-03T03:54:51;95798.63;;;10.55;49.85
51083;BME280;37131;42.694;23.350;2023-05-03T03:57:16;95800.94;;;10.38;50.47
51083;BME280;37131;42.694;23.350;2023-05-03T03:59:42;95807.28;;;10.49;49.82
51083;BME280;37131;42.694;23.350;2023-05-03T04:02:07;95807.28;;;10.49;50.04
51083;BME280;37131;42.694;23.350;2023-05-03T04:04:32;95800.47;;;10.48;50.98
51083;BME280;37131;42.694;23.350;2023-05-03T04:06:58;95802.50;;;10.46;50.10
51083;BME280;37131;42.694;23.350;2023-05-03T04:09:23;95807.94;;;10.44;49.92
51083;BME280;37131;42.694;23.350;2023-05-03T04:11:48;95818.03;;;10.66;49.81
51083;BME280;37131;42.694;23.350;2023-05-03T04:14:13;95811.38;;;10.70;49.74
51083;BME280;37131;42.694;23.350;2023-05-03T04:16:39;95810.72;;;10.75;48.61
51083;BME280;37131;42.694;23.350;2023-05-03T04:19:04;95818.22;;;10.64;49.46
51083;BME280;37131;42.694;23.350;2023-05-03T04:21:29;95813.44;;;10.61;49.67
51083;BME280;37131;42.694;23.350;2023-05-03T04:23:55;95816.22;;;10.66;48.90
51083;BME280;37131;42.694;23.350;2023-05-03T04:26:20;95820.44;;;10.67;49.71
51083;BME280;37131;42.694;23.350;2023-05-03T04:28:48;95822.13;;;10.80;49.19
51083;BME280;37131;42.694;23.350;2023-05-03T04:31:15;95831.03;;;10.73;49.43
51083;BME280;37131;42.694;23.350;2023-05-03T04:33:40;95835.81;;;10.76;50.19
51083;BME280;37131;42.694;23.350;2023-05-03T04:36:07;95842.22;;;10.80;49.61
51083;BME280;37131;42.694;23.350;2023-05-03T04:38:33;95846.31;;;10.69;52.48
51083;BME280;37131;42.694;23.350;2023-05-03T04:40:58;95850.75;;;10.62;52.50
51083;BME280;37131;42.694;23.350;2023-05-03T04:43:24;95852.09;;;10.71;54.14
51083;BME280;37131;42.694;23.350;2023-05-03T04:45:50;95860.13;;;10.69;54.30
51083;BME280;37131;42.694;23.350;2023-05-03T04:48:16;95860.50;;;10.73;54.07
51083;BME280;37131;42.694;23.350;2023-05-03T04:50:42;95872.97;;;10.64;56.18
51083;BME280;37131;42.694;23.350;2023-05-03T04:53:07;95875.13;;;10.81;56.54
51083;BME280;37131;42.694;23.350;2023-05-03T04:55:32;95884.81;;;10.67;56.45
51083;BME280;37131;42.694;23.350;2023-05-03T04:57:58;95889.25;;;10.60;58.97
51083;BME280;37131;42.694;23.350;2023-05-03T05:00:23;95895.31;;;10.53;59.34
51083;BME280;37131;42.694;23.350;2023-05-03T05:02:48;95902.75;;;10.50;61.74
51083;BME280;37131;42.694;23.350;2023-05-03T05:05:14;95894.75;;;10.45;58.53
51083;BME280;37131;42.694;23.350;2023-05-03T05:07:39;95905.81;;;10.20;59.85
51083;BME280;37131;42.694;23.350;2023-05-03T05:10:05;95869.38;;;10.07;60.53
51083;BME280;37131;42.694;23.350;2023-05-03T05:12:31;95917.28;;;10.12;61.29
51083;BME280;37131;42.694;23.350;2023-05-03T05:14:56;95912.31;;;9.91;62.72
51083;BME280;37131;42.694;23.350;2023-05-03T05:17:22;95911.31;;;9.78;62.34
51083;BME280;37131;42.694;23.350;2023-05-03T05:19:47;95917.13;;;9.87;65.02
51083;BME280;37131;42.694;23.350;2023-05-03T05:22:12;95917.13;;;9.87;65.02
51083;BME280;37131;42.694;23.350;2023-05-03T05:24:37;95911.47;;;10.10;65.40
51083;BME280;37131;42.694;23.350;2023-05-03T05:27:03;95911.72;;;9.95;66.30
51083;BME280;37131;42.694;23.350;2023-05-03T05:29:28;95919.31;;;9.97;64.56
51083;BME280;37131;42.694;23.350;2023-05-03T05:31:53;95919.28;;;10.10;65.05
51083;BME280;37131;42.694;23.350;2023-05-03T05:34:19;95921.72;;;9.92;65.46
51083;BME280;37131;42.694;23.350;2023-05-03T05:36:44;95917.31;;;10.06;66.17
51083;BME280;37131;42.694;23.350;2023-05-03T05:39:10;95922.28;;;10.14;64.91
51083;BME280;37131;42.694;23.350;2023-05-03T05:41:35;95916.84;;;10.35;64.79
51083;BME280;37131;42.694;23.350;2023-05-03T05:44:01;95910.44;;;10.38;64.29
51083;BME280;37131;42.694;23.350;2023-05-03T05:46:26;95908.38;;;10.47;64.16
51083;BME280;37131;42.694;23.350;2023-05-03T05:48:51;95912.00;;;10.46;65.29
51083;BME280;37131;42.694;23.350;2023-05-03T05:51:17;95904.78;;;10.41;62.32
51083;BME280;37131;42.694;23.350;2023-05-03T05:53:42;95895.94;;;10.49;66.47
51083;BME280;37131;42.694;23.350;2023-05-03T05:56:08;95898.75;;;10.47;63.48
51083;BME280;37131;42.694;23.350;2023-05-03T05:58:33;95900.72;;;10.59;65.02
51083;BME280;37131;42.694;23.350;2023-05-03T06:00:59;95904.13;;;10.59;65.13
51083;BME280;37131;42.694;23.350;2023-05-03T06:03:27;95887.84;;;10.64;64.79
51083;BME280;37131;42.694;23.350;2023-05-03T06:05:53;95901.50;;;10.59;62.47
51083;BME280;37131;42.694;23.350;2023-05-03T06:08:18;95896.72;;;10.56;63.25
51083;BME280;37131;42.694;23.350;2023-05-03T06:10:43;95902.41;;;10.40;62.57
51083;BME280;37131;42.694;23.350;2023-05-03T06:13:09;95891.31;;;10.51;61.28
51083;BME280;37131;42.694;23.350;2023-05-03T06:15:34;95897.38;;;10.31;63.17
51083;BME280;37131;42.694;23.350;2023-05-03T06:17:59;95893.75;;;10.46;65.32
51083;BME280;37131;42.694;23.350;2023-05-03T06:20:24;95889.53;;;10.45;63.69
51083;BME280;37131;42.694;23.350;2023-05-03T06:22:50;95899.38;;;10.36;65.30
51083;BME280;37131;42.694;23.350;2023-05-03T06:25:15;95900.59;;;10.40;64.06
51083;BME280;37131;42.694;23.350;2023-05-03T06:27:41;95905.78;;;10.47;63.99
51083;BME280;37131;42.694;23.350;2023-05-03T06:30:06;95902.78;;;10.30;63.71
51083;BME280;37131;42.694;23.350;2023-05-03T06:32:32;95905.38;;;10.50;66.73
51083;BME280;37131;42.694;23.350;2023-05-03T06:34:57;95900.16;;;10.43;64.07
51083;BME280;37131;42.694;23.350;2023-05-03T06:37:23;95896.91;;;10.55;64.26
51083;BME280;37131;42.694;23.350;2023-05-03T06:39:49;95893.69;;;10.52;68.88
51083;BME280;37131;42.694;23.350;2023-05-03T06:42:14;95889.03;;;10.68;65.68
51083;BME280;37131;42.694;23.350;2023-05-03T06:44:40;95887.41;;;10.67;62.33
51083;BME280;37131;42.694;23.350;2023-05-03T06:47:09;95883.16;;;10.79;64.04
51083;BME280;37131;42.694;23.350;2023-05-03T06:49:34;95871.03;;;10.92;62.90
51083;BME280;37131;42.694;23.350;2023-05-03T06:51:59;95868.19;;;11.00;63.98
51083;BME280;37131;42.694;23.350;2023-05-03T06:54:25;95867.03;;;10.89;61.88
51083;BME280;37131;42.694;23.350;2023-05-03T06:56:50;95859.94;;;11.03;63.69
51083;BME280;37131;42.694;23.350;2023-05-03T06:59:15;95852.03;;;11.10;62.19
51083;BME280;37131;42.694;23.350;2023-05-03T07:01:41;95847.94;;;10.95;59.27
51083;BME280;37131;42.694;23.350;2023-05-03T07:04:06;95840.19;;;11.14;61.04
51083;BME280;37131;42.694;23.350;2023-05-03T07:06:31;95845.16;;;11.22;58.73
51083;BME280;37131;42.694;23.350;2023-05-03T07:08:56;95848.47;;;11.29;60.00
51083;BME280;37131;42.694;23.350;2023-05-03T07:11:22;95845.72;;;11.49;57.90
51083;BME280;37131;42.694;23.350;2023-05-03T07:13:50;95847.75;;;11.47;58.82
51083;BME280;37131;42.694;23.350;2023-05-03T07:16:16;95848.88;;;11.33;60.79
51083;BME280;37131;42.694;23.350;2023-05-03T07:18:41;95867.56;;;11.30;57.84
51083;BME280;37131;42.694;23.350;2023-05-03T07:21:07;95872.78;;;11.30;57.69
51083;BME280;37131;42.694;23.350;2023-05-03T07:23:32;95863.25;;;11.42;57.75
51083;BME280;37131;42.694;23.350;2023-05-03T07:25:57;95860.97;;;11.27;58.23
51083;BME280;37131;42.694;23.350;2023-05-03T07:28:23;95854.03;;;11.14;58.92
51083;BME280;37131;42.694;23.350;2023-05-03T07:30:48;95861.97;;;11.26;60.95
51083;BME280;37131;42.694;23.350;2023-05-03T07:33:14;95859.94;;;11.53;60.20
51083;BME280;37131;42.694;23.350;2023-05-03T07:35:40;95868.22;;;11.50;58.99
51083;BME280;37131;42.694;23.350;2023-05-03T07:38:05;95862.72;;;11.33;60.26
51083;BME280;37131;42.694;23.350;2023-05-03T07:40:30;95864.09;;;11.36;59.40
51083;BME280;37131;42.694;23.350;2023-05-03T07:42:58;95853.91;;;11.53;59.47
51083;BME280;37131;42.694;23.350;2023-05-03T07:45:23;95852.25;;;11.58;59.30
51083;BME280;37131;42.694;23.350;2023-05-03T07:47:48;95842.00;;;11.38;60.12
51083;BME280;37131;42.694;23.350;2023-05-03T07:50:14;95847.53;;;11.49;59.77
51083;BME280;37131;42.694;23.350;2023-05-03T07:52:39;95844.94;;;11.49;60.26
51083;BME280;37131;42.694;23.350;2023-05-03T07:55:06;95848.47;;;11.29;60.95
51083;BME280;37131;42.694;23.350;2023-05-03T07:57:31;95861.16;;;11.26;61.08
51083;BME280;37131;42.694;23.350;2023-05-03T07:59:57;95861.72;;;11.34;61.17
51083;BME280;37131;42.694;23.350;2023-05-03T08:02:22;95852.38;;;11.20;60.85
51083;BME280;37131;42.694;23.350;2023-05-03T08:04:47;95859.34;;;11.26;60.88
51083;BME280;37131;42.694;23.350;2023-05-03T08:07:13;95867.78;;;11.28;62.01
51083;BME280;37131;42.694;23.350;2023-05-03T08:09:38;95876.78;;;11.57;62.11
51083;BME280;37131;42.694;23.350;2023-05-03T08:12:04;95865.34;;;11.77;61.79
51083;BME280;37131;42.694;23.350;2023-05-03T08:14:29;95866.47;;;11.63;62.22
51083;BME280;37131;42.694;23.350;2023-05-03T08:16:54;95857.13;;;11.73;61.06
51083;BME280;37131;42.694;23.350;2023-05-03T08:19:20;95869.97;;;12.00;62.29
51083;BME280;37131;42.694;23.350;2023-05-03T08:21:45;95861.34;;;11.74;61.93
51083;BME280;37131;42.694;23.350;2023-05-03T08:24:13;95865.78;;;11.92;61.17
51083;BME280;37131;42.694;23.350;2023-05-03T08:26:38;95859.41;;;11.88;60.42
51083;BME280;37131;42.694;23.350;2023-05-03T08:29:04;95863.88;;;12.06;60.46
51083;BME280;37131;42.694;23.350;2023-05-03T08:31:30;95863.28;;;12.04;60.49
51083;BME280;37131;42.694;23.350;2023-05-03T08:33:55;95859.47;;;12.56;61.14
51083;BME280;37131;42.694;23.350;2023-05-03T08:36:21;95862.59;;;13.07;60.24
51083;BME280;37131;42.694;23.350;2023-05-03T08:38:46;95867.41;;;13.22;57.35
51083;BME280;37131;42.694;23.350;2023-05-03T08:43:43;95855.97;;;12.92;58.53
51083;BME280;37131;42.694;23.350;2023-05-03T08:46:10;95848.47;;;13.08;57.54
51083;BME280;37131;42.694;23.350;2023-05-03T08:48:36;95840.69;;;13.55;56.40
51083;BME280;37131;42.694;23.350;2023-05-03T08:51:02;95844.66;;;13.93;54.54
51083;BME280;37131;42.694;23.350;2023-05-03T08:53:28;95845.84;;;13.62;56.32
51083;BME280;37131;42.694;23.350;2023-05-03T08:55:53;95847.91;;;13.72;55.99
51083;BME280;37131;42.694;23.350;2023-05-03T08:58:19;95861.88;;;13.89;55.37
51083;BME280;37131;42.694;23.350;2023-05-03T09:00:44;95858.59;;;13.46;56.23
51083;BME280;37131;42.694;23.350;2023-05-03T09:03:10;95861.22;;;13.58;56.41
51083;BME280;37131;42.694;23.350;2023-05-03T09:05:35;95858.72;;;13.75;54.86
51083;BME280;37131;42.694;23.350;2023-05-03T09:08:04;95856.75;;;13.94;56.82
51083;BME280;37131;42.694;23.350;2023-05-03T09:10:30;95863.94;;;13.99;54.55
51083;BME280;37131;42.694;23.350;2023-05-03T09:12:59;95857.69;;;13.53;55.96
51083;BME280;37131;42.694;23.350;2023-05-03T09:15:25;95845.59;;;13.40;56.87
51083;BME280;37131;42.694;23.350;2023-05-03T09:20:50;95834.31;;;13.98;55.14
51083;BME280;37131;42.694;23.350;2023-05-03T09:23:17;95828.69;;;14.07;56.73
51083;BME280;37131;42.694;23.350;2023-05-03T09:25:43;95817.25;;;14.25;54.79
51083;BME280;37131;42.694;23.350;2023-05-03T09:28:09;95823.72;;;14.34;55.81
51083;BME280;37131;42.694;23.350;2023-05-03T09:30:34;95820.09;;;14.64;53.82
51083;BME280;37131;42.694;23.350;2023-05-03T09:33:00;95817.22;;;14.94;52.85
51083;BME280;37131;42.694;23.350;2023-05-03T09:35:26;95812.59;;;14.84;53.62
51083;BME280;37131;42.694;23.350;2023-05-03T09:37:52;95810.63;;;15.25;51.34
51083;BME280;37131;42.694;23.350;2023-05-03T09:40:21;95789.59;;;15.08;51.69
51083;BME280;37131;42.694;23.350;2023-05-03T09:45:36;95789.41;;;15.32;52.33
51083;BME280;37131;42.694;23.350;2023-05-03T09:48:02;95786.31;;;15.52;49.96
51083;BME280;37131;42.694;23.350;2023-05-03T09:50:30;95793.84;;;15.26;50.62
51083;BME280;37131;42.694;23.350;2023-05-03T09:52:56;95794.56;;;15.61;52.26
51083;BME280;37131;42.694;23.350;2023-05-03T09:55:22;95789.66;;;15.87;50.33
51083;BME280;37131;42.694;23.350;2023-05-03T09:57:48;95782.09;;;15.90;49.34
51083;BME280;37131;42.694;23.350;2023-05-03T10:00:14;95784.59;;;15.07;51.86
51083;BME280;37131;42.694;23.350;2023-05-03T10:02:41;95789.41;;;15.49;54.51
51083;BME280;37131;42.694;23.350;2023-05-03T10:05:06;95775.50;;;15.88;51.26
51083;BME280;37131;42.694;23.350;2023-05-03T10:07:34;95763.06;;;16.05;50.17
51083;BME280;37131;42.694;23.350;2023-05-03T10:10:01;95758.03;;;16.26;49.68
51083;BME280;37131;42.694;23.350;2023-05-03T10:12:26;95777.63;;;16.13;50.01
51083;BME280;37131;42.694;23.350;2023-05-03T10:14:52;95780.22;;;16.08;49.75
51083;BME280;37131;42.694;23.350;2023-05-03T10:17:28;95778.53;;;15.79;51.95
51083;BME280;37131;42.694;23.350;2023-05-03T10:20:11;95771.75;;;16.06;49.98
51083;BME280;37131;42.694;23.350;2023-05-03T10:25:22;95741.84;;;16.66;48.32
51083;BME280;37131;42.694;23.350;2023-05-03T10:30:25;95729.72;;;17.30;46.97
51083;BME280;37131;42.694;23.350;2023-05-03T10:32:52;95730.31;;;17.48;46.40
51083;BME280;37131;42.694;23.350;2023-05-03T10:35:18;95722.72;;;17.09;48.26
51083;BME280;37131;42.694;23.350;2023-05-03T10:37:43;95714.78;;;16.71;48.48
51083;BME280;37131;42.694;23.350;2023-05-03T10:42:36;95717.81;;;16.90;47.81
51083;BME280;37131;42.694;23.350;2023-05-03T10:45:01;95716.91;;;17.07;48.34
51083;BME280;37131;42.694;23.350;2023-05-03T10:47:27;95713.13;;;16.92;47.41
51083;BME280;37131;42.694;23.350;2023-05-03T10:55:09;95720.31;;;16.75;47.70
51083;BME280;37131;42.694;23.350;2023-05-03T10:57:36;95728.63;;;16.61;49.80
51083;BME280;37131;42.694;23.350;2023-05-03T11:00:03;95727.59;;;16.35;49.82
51083;BME280;37131;42.694;23.350;2023-05-03T11:02:32;95740.38;;;16.21;49.06
51083;BME280;37131;42.694;23.350;2023-05-03T11:05:01;95728.38;;;16.08;50.26
51083;BME280;37131;42.694;23.350;2023-05-03T11:07:29;95716.59;;;16.11;50.17
51083;BME280;37131;42.694;23.350;2023-05-03T11:09:55;95714.94;;;16.32;49.93
51083;BME280;37131;42.694;23.350;2023-05-03T11:12:21;95713.78;;;16.50;49.39
51083;BME280;37131;42.694;23.350;2023-05-03T11:14:46;95708.03;;;16.53;49.83
51083;BME280;37131;42.694;23.350;2023-05-03T11:17:11;95697.22;;;16.49;49.62
51083;BME280;37131;42.694;23.350;2023-05-03T11:19:37;95703.44;;;16.71;48.96
51083;BME280;37131;42.694;23.350;2023-05-03T11:22:03;95701.63;;;16.71;50.30
51083;BME280;37131;42.694;23.350;2023-05-03T11:24:29;95711.53;;;16.91;49.03
51083;BME280;37131;42.694;23.350;2023-05-03T11:26:54;95704.16;;;16.61;50.02
51083;BME280;37131;42.694;23.350;2023-05-03T11:29:19;95700.47;;;16.62;49.74
51083;BME280;37131;42.694;23.350;2023-05-03T11:31:45;95694.19;;;16.36;50.90
51083;BME280;37131;42.694;23.350;2023-05-03T11:34:11;95691.22;;;16.59;50.38
51083;BME280;37131;42.694;23.350;2023-05-03T11:36:36;95697.81;;;16.57;50.14
51083;BME280;37131;42.694;23.350;2023-05-03T11:39:02;95703.81;;;16.84;50.01
51083;BME280;37131;42.694;23.350;2023-05-03T11:41:29;95706.94;;;16.81;49.56
51083;BME280;37131;42.694;23.350;2023-05-03T11:43:56;95705.72;;;16.89;49.16
51083;BME280;37131;42.694;23.350;2023-05-03T11:46:22;95700.72;;;16.93;48.90
51083;BME280;37131;42.694;23.350;2023-05-03T11:48:48;95684.75;;;17.05;49.66
51083;BME280;37131;42.694;23.350;2023-05-03T11:51:13;95693.22;;;17.12;49.93
51083;BME280;37131;42.694;23.350;2023-05-03T11:53:39;95688.94;;;17.00;49.16
51083;BME280;37131;42.694;23.350;2023-05-03T11:56:06;95684.16;;;16.92;49.30
51083;BME280;37131;42.694;23.350;2023-05-03T11:58:32;95684.16;;;16.33;51.05
51083;BME280;37131;42.694;23.350;2023-05-03T12:00:57;95690.84;;;16.73;50.36
51083;BME280;37131;42.694;23.350;2023-05-03T12:03:24;95696.75;;;16.90;50.70
51083;BME280;37131;42.694;23.350;2023-05-03T12:05:50;95687.09;;;17.01;49.30
51083;BME280;37131;42.694;23.350;2023-05-03T12:08:17;95679.38;;;16.89;49.84
51083;BME280;37131;42.694;23.350;2023-05-03T12:10:43;95669.31;;;16.48;50.83
51083;BME280;37131;42.694;23.350;2023-05-03T12:13:08;95674.97;;;16.62;51.69
51083;BME280;37131;42.694;23.350;2023-05-03T12:15:34;95680.03;;;16.42;50.81
51083;BME280;37131;42.694;23.350;2023-05-03T12:18:02;95673.09;;;16.63;50.43
51083;BME280;37131;42.694;23.350;2023-05-03T12:20:28;95683.13;;;16.66;50.45
51083;BME280;37131;42.694;23.350;2023-05-03T12:23:00;95667.69;;;16.42;50.96
51083;BME280;37131;42.694;23.350;2023-05-03T12:25:26;95668.03;;;16.56;51.49
51083;BME280;37131;42.694;23.350;2023-05-03T12:27:52;95674.31;;;16.50;50.36
51083;BME280;37131;42.694;23.350;2023-05-03T12:30:17;95678.50;;;15.91;51.92
51083;BME280;37131;42.694;23.350;2023-05-03T12:32:43;95688.78;;;15.71;52.80
51083;BME280;37131;42.694;23.350;2023-05-03T12:35:08;95692.19;;;15.71;53.52
51083;BME280;37131;42.694;23.350;2023-05-03T12:37:33;95687.59;;;15.61;54.09
51083;BME280;37131;42.694;23.350;2023-05-03T12:39:59;95690.47;;;15.60;54.06
51083;BME280;37131;42.694;23.350;2023-05-03T12:42:25;95681.72;;;15.32;55.48
51083;BME280;37131;42.694;23.350;2023-05-03T12:44:51;95672.06;;;15.38;55.35
51083;BME280;37131;42.694;23.350;2023-05-03T12:47:16;95669.78;;;15.24;56.40
51083;BME280;37131;42.694;23.350;2023-05-03T12:49:42;95673.78;;;15.27;56.15
51083;BME280;37131;42.694;23.350;2023-05-03T12:52:07;95665.31;;;15.25;56.13
51083;BME280;37131;42.694;23.350;2023-05-03T12:54:33;95670.34;;;15.04;57.24
51083;BME280;37131;42.694;23.350;2023-05-03T12:56:58;95664.84;;;15.06;57.13
51083;BME280;37131;42.694;23.350;2023-05-03T12:59:27;95664.44;;;14.97;57.87
51083;BME280;37131;42.694;23.350;2023-05-03T13:01:53;95675.78;;;14.81;60.78
51083;BME280;37131;42.694;23.350;2023-05-03T13:04:18;95675.97;;;14.79;61.94
51083;BME280;37131;42.694;23.350;2023-05-03T13:06:43;95670.38;;;14.70;63.34
51083;BME280;37131;42.694;23.350;2023-05-03T13:09:09;95668.69;;;14.64;64.36
51083;BME280;37131;42.694;23.350;2023-05-03T13:11:35;95680.34;;;14.56;64.41
51083;BME280;37131;42.694;23.350;2023-05-03T13:14:01;95670.28;;;14.65;64.78
51083;BME280;37131;42.694;23.350;2023-05-03T13:16:26;95676.44;;;14.59;64.22
51083;BME280;37131;42.694;23.350;2023-05-03T13:18:52;95670.53;;;14.35;65.91
51083;BME280;37131;42.694;23.350;2023-05-03T13:21:19;95666.16;;;14.24;68.51